Time;durP1;ratioP1;P1;durP2;ratioP2;P2;SDS_P1;SDS_P2;PMS_P1;PMS_P2;Temp;Humidity;BMP_temperature;BMP_pressure;BME280_temperature;BME280_humidity;BME280_pressure;Samples;Min_cycle;Max_cycle;Signal;HPM_P1;HPM_P2
2023/07/01 00:00:14;;;;;;;17.38;12.57;;;;;;;18.84;77.64;96281.03;4920332;29;20107;-85
2023/07/01 00:02:42;;;;;;;19.67;13.00;;;;;;;18.82;77.85;96275.19;4921313;29;20107;-86
2023/07/01 00:05:10;;;;;;;21.55;13.65;;;;;;;18.79;78.49;96273.03;4920632;29;20542;-85
2023/07/01 00:07:39;;;;;;;19.85;13.00;;;;;;;18.77;78.79;96277.72;4920749;29;20071;-85
2023/07/01 00:10:08;;;;;;;19.30;13.23;;;;;;;18.73;78.76;96272.13;4919749;29;20468;-85
2023/07/01 00:12:36;;;;;;;22.48;13.63;;;;;;;18.69;79.29;96262.28;4919964;29;20048;-85
2023/07/01 00:15:04;;;;;;;19.83;12.68;;;;;;;18.66;79.81;96258.28;4920382;29;20099;-84
2023/07/01 00:17:33;;;;;;;16.55;11.55;;;;;;;18.63;78.77;96261.41;4919739;29;20059;-85
2023/07/01 00:20:00;;;;;;;17.10;11.50;;;;;;;18.58;78.78;96266.59;4919669;29;20052;-85
2023/07/01 00:22:28;;;;;;;15.65;10.82;;;;;;;18.51;78.28;96266.75;4919079;29;20131;-85
2023/07/01 00:24:57;;;;;;;18.08;11.18;;;;;;;18.43;78.55;96259.25;4919798;29;20468;-85
2023/07/01 00:27:25;;;;;;;17.98;11.85;;;;;;;18.39;78.74;96260.78;4916994;29;20053;-85
2023/07/01 00:29:52;;;;;;;14.13;10.60;;;;;;;18.34;79.38;96263.31;4916552;29;20091;-85
2023/07/01 00:32:20;;;;;;;16.42;9.90;;;;;;;18.35;79.73;96262.28;4916634;29;20058;-84
2023/07/01 00:34:48;;;;;;;19.83;11.90;;;;;;;18.36;79.26;96266.53;4916838;29;20048;-85
2023/07/01 00:37:15;;;;;;;21.58;13.95;;;;;;;18.38;79.44;96266.28;4917012;29;20084;-84
2023/07/01 00:39:43;;;;;;;23.27;15.45;;;;;;;18.39;79.79;96258.13;4915988;29;20519;-84
2023/07/01 00:42:12;;;;;;;21.08;15.20;;;;;;;18.44;80.02;96260.84;4917066;29;20052;-84
2023/07/01 00:44:40;;;;;;;23.33;16.13;;;;;;;18.49;80.13;96263.56;4916659;29;20099;-84
2023/07/01 00:47:08;;;;;;;20.58;14.10;;;;;;;18.53;80.18;96258.59;4916479;29;20052;-84
2023/07/01 00:49:37;;;;;;;23.35;16.00;;;;;;;18.55;80.04;96256.53;4915878;29;20080;-85
2023/07/01 00:52:06;;;;;;;22.50;15.52;;;;;;;18.57;79.98;96253.66;4915995;29;20071;-85
2023/07/01 00:54:35;;;;;;;20.10;15.32;;;;;;;18.57;79.52;96254.44;4916531;29;20056;-84
2023/07/01 00:57:04;;;;;;;19.75;14.02;;;;;;;18.61;79.50;96260.06;4916613;29;20056;-85
2023/07/01 00:59:33;;;;;;;20.35;12.30;;;;;;;18.64;79.45;96254.28;4916217;29;20056;-84
2023/07/01 01:02:07;;;;;;;23.40;12.40;;;;;;;18.62;79.69;96266.94;4916447;29;20464;-85
2023/07/01 01:04:45;;;;;;;14.60;11.25;;;;;;;18.62;78.98;96267.72;4916480;29;20059;-85
2023/07/01 01:07:23;;;;;;;13.80;10.80;;;;;;;18.62;79.13;96261.66;4916201;29;20051;-85
2023/07/01 01:09:56;;;;;;;12.60;10.60;;;;;;;18.63;79.17;96271.16;4915986;29;20427;-85
2023/07/01 01:12:29;;;;;;;12.63;10.00;;;;;;;18.62;79.29;96266.94;4915997;29;20048;-85
2023/07/01 01:15:00;;;;;;;13.57;10.07;;;;;;;18.65;78.73;96269.91;4916000;29;20072;-85
2023/07/01 01:17:30;;;;;;;13.05;8.70;;;;;;;18.66;78.53;96273.34;4916143;29;20115;-85
2023/07/01 01:20:12;;;;;;;14.35;8.93;;;;;;;18.67;78.31;96270.47;4915591;29;20048;-86
2023/07/01 01:22:47;;;;;;;11.55;8.93;;;;;;;18.69;78.38;96272.84;4916176;29;20044;-85
2023/07/01 01:25:35;;;;;;;14.35;9.25;;;;;;;18.69;78.17;96270.22;4915774;29;20056;-85
2023/07/01 01:28:15;;;;;;;11.38;8.57;;;;;;;18.70;78.61;96269.97;4916575;29;20082;-86
2023/07/01 01:30:44;;;;;;;11.20;7.90;;;;;;;18.68;77.74;96261.47;4918750;29;20052;-84
2023/07/01 01:33:12;;;;;;;12.15;8.30;;;;;;;18.66;77.47;96262.78;4919018;29;20056;-84
2023/07/01 01:35:40;;;;;;;9.82;7.38;;;;;;;18.65;78.03;96263.81;4918964;29;20531;-85
2023/07/01 01:38:13;;;;;;;12.60;8.93;;;;;;;18.65;77.49;96261.16;4918847;29;20129;-85
2023/07/01 01:40:47;;;;;;;9.73;7.10;;;;;;;18.65;77.58;96258.50;4918820;29;20048;-86
2023/07/01 01:43:26;;;;;;;10.40;8.35;;;;;;;18.64;77.24;96254.28;4919323;29;20052;-86
2023/07/01 01:45:55;;;;;;;9.38;6.93;;;;;;;18.65;77.42;96254.06;4918995;29;20066;-85
2023/07/01 01:48:24;;;;;;;11.63;7.50;;;;;;;18.67;77.05;96256.44;4918635;29;20531;-85
2023/07/01 01:50:55;;;;;;;9.10;6.30;;;;;;;18.65;77.02;96256.69;4926310;29;20048;-85
2023/07/01 01:53:27;;;;;;;10.50;6.93;;;;;;;18.65;76.67;96256.69;4927640;29;20052;-84
2023/07/01 01:55:57;;;;;;;8.50;6.30;;;;;;;18.68;76.76;96255.41;4929078;29;20060;-84
2023/07/01 01:58:27;;;;;;;9.93;6.55;;;;;;;18.64;75.88;96246.38;4927655;29;20147;-85
2023/07/01 02:00:55;;;;;;;7.25;5.97;;;;;;;18.61;76.43;96249.50;4927549;29;20052;-85
2023/07/01 02:03:23;;;;;;;8.90;6.25;;;;;;;18.60;75.75;96253.16;4926823;29;20071;-85
2023/07/01 02:05:52;;;;;;;7.38;5.82;;;;;;;18.61;75.67;96254.78;4925496;29;20143;-85
2023/07/01 02:08:20;;;;;;;8.60;5.40;;;;;;;18.59;75.39;96243.66;4925790;29;20060;-85
2023/07/01 02:10:48;;;;;;;6.88;5.32;;;;;;;18.61;75.65;96249.50;4926518;29;20044;-85
2023/07/01 02:13:18;;;;;;;8.23;5.75;;;;;;;18.62;74.96;96245.81;4926645;29;20075;-84
2023/07/01 02:15:48;;;;;;;7.20;5.22;;;;;;;18.65;74.64;96245.31;4925775;29;20504;-85
2023/07/01 02:18:16;;;;;;;6.05;4.53;;;;;;;18.67;74.47;96245.88;4924528;29;20095;-86
2023/07/01 02:20:44;;;;;;;7.78;4.95;;;;;;;18.67;74.04;96248.50;4923461;29;20060;-85
2023/07/01 02:23:15;;;;;;;7.35;4.93;;;;;;;18.67;74.17;96244.03;4923537;29;20052;-86
2023/07/01 02:25:44;;;;;;;11.73;6.10;;;;;;;18.64;73.72;96243.72;4921266;29;20496;-86
2023/07/01 02:28:13;;;;;;;7.30;4.75;;;;;;;18.64;74.02;96246.38;4923650;29;20079;-85
2023/07/01 02:30:43;;;;;;;6.95;5.68;;;;;;;18.61;73.42;96237.09;4925267;29;20074;-85
2023/07/01 02:33:23;;;;;;;8.52;5.25;;;;;;;18.62;74.48;96245.81;4931404;29;20067;-85
2023/07/01 02:35:51;;;;;;;5.97;4.75;;;;;;;18.63;73.78;96242.09;4931382;29;20056;-84
2023/07/01 02:38:19;;;;;;;7.95;4.97;;;;;;;18.56;73.25;96242.28;4931224;29;20070;-84
2023/07/01 02:40:47;;;;;;;8.98;5.15;;;;;;;18.50;73.75;96238.75;4928460;29;20051;-84
2023/07/01 02:43:15;;;;;;;5.57;4.38;;;;;;;18.52;74.37;96244.63;4928230;29;20093;-84
2023/07/01 02:45:43;;;;;;;7.78;4.38;;;;;;;18.53;74.06;96242.75;4928455;29;20103;-84
2023/07/01 02:48:10;;;;;;;5.03;4.20;;;;;;;18.56;74.04;96244.13;4928305;29;20052;-84
2023/07/01 02:50:39;;;;;;;5.18;4.22;;;;;;;18.58;74.05;96247.31;4925168;29;20056;-85
2023/07/01 02:53:07;;;;;;;7.22;5.07;;;;;;;18.57;73.46;96248.38;4925935;29;20052;-85
2023/07/01 02:55:37;;;;;;;5.18;4.13;;;;;;;18.55;73.77;96250.44;4926168;29;20401;-85
2023/07/01 02:58:05;;;;;;;4.95;3.90;;;;;;;18.52;73.98;96247.25;4925063;29;20432;-85
2023/07/01 03:00:33;;;;;;;6.88;4.22;;;;;;;18.53;73.94;96248.03;4925750;29;20052;-84
2023/07/01 03:03:06;;;;;;;6.25;4.40;;;;;;;18.50;73.75;96248.53;4925744;29;20056;-85
2023/07/01 03:05:35;;;;;;;5.90;4.35;;;;;;;18.48;73.31;96246.13;4922328;29;20051;-85
2023/07/01 03:08:05;;;;;;;8.10;4.65;;;;;;;18.46;73.36;96240.28;4923461;29;20048;-84
2023/07/01 03:10:33;;;;;;;6.30;4.72;;;;;;;18.43;72.86;96238.13;4919462;29;20090;-85
2023/07/01 03:13:01;;;;;;;7.35;4.88;;;;;;;18.41;73.33;96239.38;4920213;29;20103;-85
2023/07/01 03:15:29;;;;;;;5.72;4.20;;;;;;;18.40;73.26;96249.16;4918470;29;20154;-85
2023/07/01 03:17:56;;;;;;;5.80;3.53;;;;;;;18.41;73.68;96244.66;4920155;29;20445;-80
2023/07/01 03:20:24;;;;;;;5.32;4.05;;;;;;;18.42;72.57;96238.38;4920091;29;20125;-81
2023/07/01 03:22:53;;;;;;;6.15;4.60;;;;;;;18.39;72.26;96246.75;4921062;29;20076;-80
2023/07/01 03:25:22;;;;;;;8.43;4.93;;;;;;;18.30;71.99;96246.34;4922129;29;20063;-82
2023/07/01 03:27:50;;;;;;;6.78;4.97;;;;;;;18.23;72.73;96235.16;4923516;29;20657;-82
2023/07/01 03:30:18;;;;;;;5.18;4.22;;;;;;;18.16;72.61;96242.44;4925058;29;20097;-82
2023/07/01 03:32:48;;;;;;;8.48;5.13;;;;;;;18.04;73.29;96243.31;4924529;29;20090;-82
2023/07/01 03:35:16;;;;;;;7.30;4.93;;;;;;;17.95;73.76;96249.19;4925476;29;20520;-82
2023/07/01 03:37:45;;;;;;;7.88;5.40;;;;;;;17.87;73.87;96243.25;4924872;29;20423;-82
2023/07/01 03:40:13;;;;;;;5.47;4.82;;;;;;;17.78;74.25;96244.66;4923775;29;20080;-82
2023/07/01 03:42:43;;;;;;;8.85;5.45;;;;;;;17.68;74.80;96245.25;4923796;29;20076;-82
2023/07/01 03:45:12;;;;;;;5.82;4.95;;;;;;;17.60;75.25;96244.81;4924444;29;20758;-82
2023/07/01 03:47:43;;;;;;;7.05;4.82;;;;;;;17.52;75.65;96243.38;4924495;29;20056;-82
2023/07/01 03:50:11;;;;;;;8.20;5.60;;;;;;;17.44;75.75;96247.16;4924939;29;20056;-82
2023/07/01 03:52:40;;;;;;;6.03;5.10;;;;;;;17.37;76.01;96245.69;4925369;29;20052;-82
2023/07/01 03:55:11;;;;;;;9.65;5.40;;;;;;;17.33;76.06;96255.09;4924218;29;20468;-82
2023/07/01 03:57:39;;;;;;;8.10;4.72;;;;;;;17.29;76.37;96249.50;4925292;29;20052;-82
2023/07/01 04:00:15;;;;;;;7.03;5.15;;;;;;;17.30;75.80;96256.38;4923227;29;20667;-82
2023/07/01 04:02:45;;;;;;;5.47;4.40;;;;;;;17.30;76.38;96259.03;4923450;29;20131;-82
2023/07/01 04:05:13;;;;;;;4.97;4.47;;;;;;;17.34;76.65;96251.44;4922619;29;20044;-82
2023/07/01 04:07:42;;;;;;;5.80;4.47;;;;;;;17.40;76.67;96255.78;4923913;29;20472;-82
2023/07/01 04:10:10;;;;;;;6.22;4.22;;;;;;;17.49;75.93;96251.72;4923173;29;20162;-82
2023/07/01 04:12:39;;;;;;;4.75;3.58;;;;;;;17.58;74.42;96247.72;4923368;29;20059;-82
2023/07/01 04:15:10;;;;;;;4.22;3.47;;;;;;;17.67;72.41;96256.84;4927650;29;20508;-82
2023/07/01 04:17:41;;;;;;;3.55;2.95;;;;;;;17.73;71.86;96257.72;4927178;29;20048;-82
2023/07/01 04:20:10;;;;;;;4.50;3.03;;;;;;;17.77;71.15;96255.44;4926835;29;20052;-81
2023/07/01 04:22:38;;;;;;;5.82;2.60;;;;;;;17.80;70.63;96262.88;4927498;29;20104;-82
2023/07/01 04:25:07;;;;;;;6.30;2.92;;;;;;;17.81;70.01;96253.94;4926617;29;20052;-82
2023/07/01 04:27:36;;;;;;;4.15;2.70;;;;;;;17.78;69.16;96251.78;4926815;29;20052;-82
2023/07/01 04:30:06;;;;;;;5.50;3.00;;;;;;;17.80;69.55;96247.84;4927710;29;20048;-82
2023/07/01 04:32:35;;;;;;;2.95;2.60;;;;;;;17.80;69.22;96260.22;4927172;29;20436;-82
2023/07/01 04:35:03;;;;;;;2.67;2.25;;;;;;;17.79;69.14;96253.34;4926260;29;20044;-82
2023/07/01 04:37:30;;;;;;;2.50;2.05;;;;;;;17.76;69.31;96251.19;4926642;29;20147;-82
2023/07/01 04:39:58;;;;;;;3.67;2.63;;;;;;;17.80;69.38;96247.03;4932940;29;20056;-83
2023/07/01 04:42:26;;;;;;;3.53;2.88;;;;;;;17.83;69.01;96241.34;4934606;29;20048;-83
2023/07/01 04:44:54;;;;;;;4.80;2.72;;;;;;;17.86;68.67;96246.13;4934582;29;20052;-82
2023/07/01 04:47:22;;;;;;;3.08;2.53;;;;;;;17.87;68.40;96245.09;4934399;29;20052;-83
2023/07/01 04:49:53;;;;;;;2.78;2.47;;;;;;;17.90;68.15;96245.41;4932177;29;20045;-82
2023/07/01 04:52:21;;;;;;;4.47;3.00;;;;;;;17.90;67.54;96240.13;4932890;29;20048;-82
2023/07/01 04:54:49;;;;;;;4.82;2.92;;;;;;;17.87;68.18;96239.81;4930029;29;20048;-82
2023/07/01 04:57:16;;;;;;;3.53;3.05;;;;;;;17.82;68.19;96242.34;4929314;29;20520;-82
2023/07/01 04:59:45;;;;;;;3.35;2.42;;;;;;;17.78;68.49;96233.31;4927632;29;20056;-82
2023/07/01 05:02:12;;;;;;;2.60;2.40;;;;;;;17.81;68.55;96232.81;4930733;29;20076;-82
2023/07/01 05:04:40;;;;;;;2.88;2.10;;;;;;;17.85;68.07;96234.78;4934347;29;20052;-82
2023/07/01 05:07:09;;;;;;;3.83;2.22;;;;;;;17.88;68.36;96236.13;4933669;29;20571;-81
2023/07/01 05:09:37;;;;;;;4.50;2.40;;;;;;;17.91;67.46;96235.69;4934715;29;20039;-83
2023/07/01 05:12:05;;;;;;;3.53;2.63;;;;;;;17.94;68.01;96240.47;4933062;29;20056;-82
2023/07/01 05:14:33;;;;;;;2.92;2.50;;;;;;;17.96;67.86;96246.31;4925208;29;20048;-80
2023/07/01 05:17:01;;;;;;;4.32;2.60;;;;;;;18.00;67.91;96246.66;4920243;29;20060;-80
2023/07/01 05:19:28;;;;;;;3.85;2.15;;;;;;;18.03;67.89;96244.31;4920165;29;20485;-80
2023/07/01 05:21:56;;;;;;;2.80;2.42;;;;;;;18.06;67.68;96248.31;4920143;29;20111;-80
2023/07/01 05:24:25;;;;;;;3.05;2.50;;;;;;;18.06;67.64;96246.50;4920819;29;20056;-83
2023/07/01 05:26:53;;;;;;;3.35;2.95;;;;;;;18.06;67.49;96249.16;4912988;29;20111;-79
2023/07/01 05:29:21;;;;;;;3.30;2.45;;;;;;;18.08;67.38;96252.34;4913225;29;20052;-79
2023/07/01 05:31:49;;;;;;;4.15;2.58;;;;;;;18.12;67.00;96247.38;4920884;29;20052;-80
2023/07/01 05:34:17;;;;;;;2.85;2.22;;;;;;;18.16;67.41;96256.41;4920433;29;20048;-79
2023/07/01 05:36:45;;;;;;;3.95;2.47;;;;;;;18.17;67.23;96255.41;4919829;29;20052;-80
2023/07/01 05:39:13;;;;;;;2.55;2.28;;;;;;;18.19;67.39;96252.50;4919267;29;20052;-81
2023/07/01 05:41:42;;;;;;;5.68;2.83;;;;;;;18.18;67.68;96249.06;4920566;29;20056;-80
2023/07/01 05:44:11;;;;;;;5.47;2.92;;;;;;;18.21;67.59;96250.44;4920307;29;20142;-80
2023/07/01 05:46:40;;;;;;;2.97;2.55;;;;;;;18.22;67.45;96241.47;4919760;29;20048;-80
2023/07/01 05:49:08;;;;;;;5.28;3.00;;;;;;;18.19;66.99;96249.88;4904713;29;20504;-80
2023/07/01 05:51:37;;;;;;;4.70;3.17;;;;;;;18.16;67.55;96247.72;4903419;29;20056;-81
2023/07/01 05:54:05;;;;;;;3.40;3.10;;;;;;;18.15;67.72;96252.19;4920153;29;20533;-80
2023/07/01 05:56:33;;;;;;;3.00;2.70;;;;;;;18.17;67.46;96249.28;4919945;29;20135;-79
2023/07/01 05:59:02;;;;;;;3.83;2.42;;;;;;;18.17;67.42;96250.13;4919261;29;20056;-78
2023/07/01 06:01:30;;;;;;;2.83;2.60;;;;;;;18.19;67.18;96241.94;4903525;29;20494;-80
2023/07/01 06:03:57;;;;;;;3.53;2.72;;;;;;;18.23;66.94;96237.78;4899838;29;20068;-80
2023/07/01 06:06:25;;;;;;;2.65;2.33;;;;;;;18.26;67.23;96239.97;4900126;29;20072;-80
2023/07/01 06:08:53;;;;;;;6.30;2.72;;;;;;;18.29;66.75;96242.13;4899764;29;20075;-80
2023/07/01 06:11:20;;;;;;;3.05;2.75;;;;;;;18.32;65.90;96236.34;4899902;29;20060;-79
2023/07/01 06:13:50;;;;;;;4.25;3.03;;;;;;;18.33;66.05;96246.69;4899074;29;20151;-78
2023/07/01 06:16:19;;;;;;;3.55;2.35;;;;;;;18.36;66.18;96250.69;4900905;29;20084;-82
2023/07/01 06:18:47;;;;;;;2.97;2.60;;;;;;;18.41;66.18;96253.41;4899953;29;20088;-81
2023/07/01 06:21:15;;;;;;;4.00;2.90;;;;;;;18.44;65.08;96244.22;4899463;29;20060;-79
2023/07/01 06:23:42;;;;;;;4.03;3.08;;;;;;;18.46;65.16;96245.56;4899812;29;20513;-84
2023/07/01 06:26:10;;;;;;;3.22;2.55;;;;;;;18.50;65.09;96249.34;4900615;29;20052;-84
2023/07/01 06:28:38;;;;;;;2.55;2.30;;;;;;;18.55;64.93;96245.16;4912570;29;20056;-86
2023/07/01 06:31:05;;;;;;;4.05;2.97;;;;;;;18.59;64.68;96251.56;4918414;29;20498;-86
2023/07/01 06:33:39;;;;;;;3.83;2.50;;;;;;;18.63;64.28;96247.38;4914079;29;20591;-88
2023/07/01 06:36:07;;;;;;;3.33;2.80;;;;;;;18.66;64.31;96247.72;4899256;29;20579;-79
2023/07/01 06:38:34;;;;;;;2.92;2.63;;;;;;;18.70;63.90;96248.84;4899761;29;20079;-80
2023/07/01 06:41:02;;;;;;;4.22;3.10;;;;;;;18.73;63.96;96234.34;4899712;29;20087;-83
2023/07/01 06:43:29;;;;;;;3.53;2.85;;;;;;;18.77;63.10;96243.38;4915842;29;20056;-81
2023/07/01 06:45:59;;;;;;;3.70;2.70;;;;;;;18.80;61.77;96242.91;4898646;29;20516;-79
2023/07/01 06:48:26;;;;;;;4.47;2.45;;;;;;;18.81;61.30;96241.88;4898704;29;20140;-80
2023/07/01 06:50:55;;;;;;;4.72;2.10;;;;;;;18.81;60.88;96239.25;4898884;29;20160;-80
2023/07/01 06:53:23;;;;;;;2.28;2.00;;;;;;;18.86;60.87;96239.31;4899490;29;20056;-83
2023/07/01 06:55:51;;;;;;;4.55;2.15;;;;;;;18.91;60.89;96249.97;4899318;29;20045;-80
2023/07/01 06:58:19;;;;;;;6.07;2.70;;;;;;;18.96;60.47;96232.56;4899556;29;20056;-77
2023/07/01 07:00:46;;;;;;;2.72;2.10;;;;;;;19.01;60.47;96232.66;4899569;29;20477;-80
2023/07/01 07:03:14;;;;;;;3.35;2.45;;;;;;;19.05;59.93;96229.28;4900981;29;20056;-80
2023/07/01 07:05:42;;;;;;;3.55;2.10;;;;;;;19.06;59.48;96225.56;4907092;29;20053;-80
2023/07/01 07:08:11;;;;;;;4.00;2.40;;;;;;;19.06;59.25;96230.84;4906169;29;20104;-80
2023/07/01 07:10:39;;;;;;;5.15;2.30;;;;;;;19.07;58.91;96221.91;4909919;29;20053;-79
2023/07/01 07:13:06;;;;;;;3.58;2.15;;;;;;;19.10;58.70;96225.88;4913213;29;20052;-78
2023/07/01 07:15:34;;;;;;;3.95;2.03;;;;;;;19.15;58.63;96223.31;4926916;29;20048;-78
2023/07/01 07:18:02;;;;;;;4.90;1.73;;;;;;;19.19;57.78;96224.41;4925530;29;20056;-78
2023/07/01 07:20:29;;;;;;;3.08;2.05;;;;;;;19.23;57.27;96233.47;4917308;29;20056;-77
2023/07/01 07:22:57;;;;;;;2.30;2.00;;;;;;;19.26;56.86;96225.06;4901154;29;20048;-77
2023/07/01 07:25:26;;;;;;;2.80;2.13;;;;;;;19.28;56.47;96225.56;4897258;29;20108;-77
2023/07/01 07:27:54;;;;;;;3.72;2.03;;;;;;;19.31;56.94;96211.88;4896820;29;20404;-76
2023/07/01 07:30:21;;;;;;;3.47;1.98;;;;;;;19.37;57.17;96201.34;4896030;29;20442;-76
2023/07/01 07:32:49;;;;;;;5.03;2.10;;;;;;;19.40;56.39;96212.25;4896869;29;20059;-76
2023/07/01 07:35:17;;;;;;;3.63;2.28;;;;;;;19.43;56.21;96203.81;4896719;29;20143;-76
2023/07/01 07:37:45;;;;;;;2.25;1.88;;;;;;;19.49;56.24;96210.75;4896220;29;20104;-76
2023/07/01 07:40:12;;;;;;;2.90;2.00;;;;;;;19.54;55.18;96204.72;4896470;29;20083;-76
2023/07/01 07:42:42;;;;;;;6.55;1.80;;;;;;;19.58;54.04;96205.03;4905429;29;20404;-76
2023/07/01 07:45:10;;;;;;;4.22;2.45;;;;;;;19.64;54.90;96204.84;4902381;29;20087;-76
2023/07/01 07:47:38;;;;;;;2.35;1.80;;;;;;;19.72;54.97;96200.97;4896644;29;20053;-76
2023/07/01 07:50:06;;;;;;;3.15;2.10;;;;;;;19.81;54.84;96201.31;4902680;29;20616;-75
2023/07/01 07:52:34;;;;;;;4.85;2.10;;;;;;;19.89;54.31;96195.56;4915495;29;20092;-75
2023/07/01 07:55:01;;;;;;;4.10;1.77;;;;;;;19.96;53.80;96196.16;4915205;29;20427;-76
2023/07/01 07:57:29;;;;;;;4.18;1.73;;;;;;;20.05;53.68;96202.63;4912886;29;20090;-75
2023/07/01 07:59:59;;;;;;;6.63;1.90;;;;;;;20.15;53.66;96200.03;4896336;29;20079;-75
2023/07/01 08:02:27;;;;;;;3.55;1.70;;;;;;;20.22;53.31;96197.19;4896370;29;20054;-76
2023/07/01 08:04:54;;;;;;;3.60;1.65;;;;;;;20.27;52.39;96199.06;4896243;29;20497;-76
2023/07/01 08:07:22;;;;;;;5.07;1.83;;;;;;;20.32;52.28;96193.81;4906697;29;20052;-75
2023/07/01 08:09:50;;;;;;;3.80;2.03;;;;;;;20.37;52.08;96196.50;4898614;29;20447;-75
2023/07/01 08:12:18;;;;;;;2.80;1.60;;;;;;;20.44;50.75;96191.78;4896398;29;20088;-76
2023/07/01 08:14:45;;;;;;;2.42;1.67;;;;;;;20.47;50.99;96186.00;4897881;29;20091;-80
2023/07/01 08:17:14;;;;;;;5.15;1.60;;;;;;;20.55;50.56;96193.47;4898669;29;20080;-79
2023/07/01 08:19:42;;;;;;;2.17;1.95;;;;;;;20.63;49.82;96184.25;4898560;29;20132;-79
2023/07/01 08:22:10;;;;;;;4.53;1.88;;;;;;;20.69;49.83;96177.94;4899235;29;20075;-79
2023/07/01 08:24:37;;;;;;;3.50;1.50;;;;;;;20.76;49.64;96178.50;4899277;29;20468;-78
2023/07/01 08:27:05;;;;;;;1.83;1.48;;;;;;;20.83;49.26;96180.91;4899338;29;20147;-78
2023/07/01 08:29:33;;;;;;;2.60;1.63;;;;;;;20.90;48.48;96173.56;4915370;29;20056;-78
2023/07/01 08:32:00;;;;;;;4.82;1.60;;;;;;;20.95;49.10;96176.22;4915117;29;20151;-77
2023/07/01 08:34:29;;;;;;;2.63;1.52;;;;;;;21.04;48.59;96173.09;4917042;29;20255;-78
2023/07/01 08:36:57;;;;;;;1.70;1.30;;;;;;;21.14;48.84;96178.41;4901625;29;20057;-78
2023/07/01 08:39:24;;;;;;;2.58;1.45;;;;;;;21.24;48.60;96181.13;4901370;29;20127;-78
2023/07/01 08:41:57;;;;;;;4.80;1.50;;;;;;;21.32;47.90;96175.31;4909489;29;20055;-78
2023/07/01 08:44:26;;;;;;;1.67;1.58;;;;;;;21.42;47.68;96179.09;4920804;29;20048;-78
2023/07/01 08:46:54;;;;;;;3.70;1.73;;;;;;;21.47;48.38;96174.59;4919129;29;20095;-78
2023/07/01 08:49:23;;;;;;;1.75;1.65;;;;;;;21.52;47.05;96174.59;4916351;29;20457;-77
2023/07/01 08:51:59;;;;;;;2.22;1.52;;;;;;;21.57;48.16;96171.16;4900183;29;20525;-77
2023/07/01 08:54:27;;;;;;;2.30;1.48;;;;;;;21.59;46.27;96163.72;4899985;29;20151;-77
2023/07/01 08:56:55;;;;;;;2.22;1.15;;;;;;;21.66;46.40;96158.97;4899692;29;20048;-77
2023/07/01 08:59:23;;;;;;;2.20;1.45;;;;;;;21.74;46.21;96155.78;4899146;29;20056;-75
2023/07/01 09:01:51;;;;;;;2.17;1.60;;;;;;;21.82;46.27;96165.09;4899500;29;20504;-80
2023/07/01 09:04:19;;;;;;;4.78;1.75;;;;;;;21.87;45.84;96166.97;4899750;29;20057;-77
2023/07/01 09:06:47;;;;;;;2.45;1.50;;;;;;;21.91;45.66;96160.03;4905804;29;20059;-77
2023/07/01 09:09:15;;;;;;;3.53;1.80;;;;;;;21.96;45.62;96160.06;4904280;29;20316;-79
2023/07/01 09:11:43;;;;;;;4.82;2.05;;;;;;;21.99;45.60;96152.34;4899550;29;20564;-76
2023/07/01 09:14:11;;;;;;;2.72;1.60;;;;;;;22.00;44.76;96150.50;4899657;29;20462;-78
2023/07/01 09:16:39;;;;;;;3.33;1.45;;;;;;;22.00;44.82;96145.19;4898439;29;20139;-78
2023/07/01 09:19:07;;;;;;;3.15;1.35;;;;;;;21.98;44.66;96142.81;4899712;29;20048;-78
2023/07/01 09:21:35;;;;;;;2.58;1.40;;;;;;;21.97;44.37;96137.75;4900011;29;20056;-76
2023/07/01 09:24:05;;;;;;;2.78;1.50;;;;;;;21.98;45.06;96134.03;4898488;29;20048;-77
2023/07/01 09:26:34;;;;;;;2.78;1.70;;;;;;;22.02;44.44;96135.13;4899341;29;20079;-77
2023/07/01 09:29:09;;;;;;;4.22;1.90;;;;;;;22.05;43.80;96129.25;4898662;29;20151;-77
2023/07/01 09:31:47;;;;;;;3.33;1.50;;;;;;;22.07;43.55;96127.13;4899485;29;20072;-77
2023/07/01 09:34:17;;;;;;;2.30;1.55;;;;;;;22.12;44.59;96129.00;4915682;29;20467;-78
2023/07/01 09:36:45;;;;;;;2.58;1.20;;;;;;;22.17;43.07;96124.47;4918745;29;20056;-84
2023/07/01 09:39:13;;;;;;;2.65;1.17;;;;;;;22.22;42.84;96123.72;4918848;29;20091;-80
2023/07/01 09:41:41;;;;;;;1.77;1.67;;;;;;;22.27;44.05;96118.38;4909389;29;20068;-78
2023/07/01 09:44:18;;;;;;;1.50;1.40;;;;;;;22.35;42.77;96125.03;4916169;29;20135;-76
2023/07/01 09:46:48;;;;;;;3.55;1.85;;;;;;;22.39;43.97;96110.09;4917282;29;20052;-77
2023/07/01 09:49:18;;;;;;;3.35;1.52;;;;;;;22.41;43.47;96121.25;4916660;29;20563;-78
2023/07/01 09:51:48;;;;;;;2.00;1.63;;;;;;;22.47;43.65;96125.50;4918568;29;20048;-78
2023/07/01 09:54:26;;;;;;;5.82;1.73;;;;;;;22.49;43.21;96111.97;4917713;29;20056;-76
2023/07/01 09:56:57;;;;;;;2.95;1.70;;;;;;;22.47;42.44;96108.78;4919630;29;20047;-78
2023/07/01 09:59:25;;;;;;;2.45;1.50;;;;;;;22.44;42.46;96106.66;4919521;29;20052;-78
2023/07/01 10:01:55;;;;;;;2.30;1.65;;;;;;;22.42;44.13;96112.25;4919710;29;20048;-78
2023/07/01 10:04:25;;;;;;;2.15;1.70;;;;;;;22.44;42.72;96104.81;4919594;29;20104;-76
2023/07/01 10:06:54;;;;;;;2.00;1.80;;;;;;;22.48;42.88;96105.84;4918877;29;20067;-78
2023/07/01 10:09:23;;;;;;;3.08;1.85;;;;;;;22.51;43.15;96100.00;4918551;29;20052;-78
2023/07/01 10:11:52;;;;;;;2.35;1.80;;;;;;;22.58;43.16;96103.16;4919246;29;20063;-77
2023/07/01 10:14:23;;;;;;;3.20;1.85;;;;;;;22.64;42.67;96098.63;4918441;29;20496;-78
2023/07/01 10:16:51;;;;;;;2.95;1.85;;;;;;;22.66;42.89;96096.50;4918518;29;20058;-77
2023/07/01 10:19:29;;;;;;;3.33;1.67;;;;;;;22.69;42.79;96100.47;4919995;29;20060;-78
2023/07/01 10:22:23;;;;;;;5.22;1.80;;;;;;;22.79;43.27;96100.44;4921215;29;20138;-78
2023/07/01 10:24:55;;;;;;;2.53;1.60;;;;;;;22.84;42.04;96087.13;4920556;29;20504;-78
2023/07/01 10:28:15;;;;;;;3.75;1.70;;;;;;;22.87;41.82;96096.41;4920372;29;20055;-78
2023/07/01 10:31:14;;;;;;;3.38;2.15;;;;;;;22.89;41.29;96094.28;4920287;29;20052;-78
2023/07/01 10:33:52;;;;;;;2.67;1.90;;;;;;;22.93;42.09;96092.66;4919849;29;20140;-78
2023/07/01 10:36:20;;;;;;;3.40;2.00;;;;;;;22.97;40.61;96083.06;4919480;29;20508;-78
2023/07/01 10:38:48;;;;;;;3.00;1.85;;;;;;;23.00;40.41;96074.56;4919384;29;20107;-78
2023/07/01 10:41:52;;;;;;;3.03;2.13;;;;;;;23.07;40.68;96079.59;4918855;29;20059;-78
2023/07/01 10:44:26;;;;;;;6.55;2.20;;;;;;;23.13;39.39;96073.19;4919563;29;20056;-78
2023/07/01 10:47:15;;;;;;;2.75;1.77;;;;;;;23.17;40.51;96068.91;4919870;29;20056;-78
2023/07/01 10:50:10;;;;;;;4.88;2.47;;;;;;;23.24;39.94;96064.06;4919046;29;20131;-78
2023/07/01 10:53:01;;;;;;;4.05;2.38;;;;;;;23.31;39.56;96058.44;4918769;29;20048;-78
2023/07/01 10:55:40;;;;;;;2.95;2.03;;;;;;;23.36;39.31;96061.88;4918327;29;20099;-78
2023/07/01 10:58:22;;;;;;;2.35;2.00;;;;;;;23.41;38.71;96053.84;4920062;29;20443;-78
2023/07/01 11:00:51;;;;;;;2.75;1.83;;;;;;;23.44;38.79;96039.22;4920627;29;20415;-78
2023/07/01 11:03:57;;;;;;;4.20;2.08;;;;;;;23.50;38.66;96046.06;4919077;29;20062;-78
2023/07/01 11:06:25;;;;;;;3.17;2.00;;;;;;;23.55;38.34;96029.25;4918336;29;20059;-78
2023/07/01 11:08:56;;;;;;;2.05;1.75;;;;;;;23.61;38.51;96028.13;4918556;29;20055;-77
2023/07/01 11:11:25;;;;;;;2.35;2.03;;;;;;;23.70;38.22;96034.44;4918329;29;20079;-78
2023/07/01 12:03:35;;;;;;;2.72;2.10;;;;;;;24.29;36.31;96007.81;5194484;23;20138;-82
2023/07/01 12:20:08;;;;;;;7.13;2.10;;;;;;;24.51;35.05;95981.47;4996334;23;20047;-84
2023/07/01 12:22:36;;;;;;;2.38;1.73;;;;;;;24.52;35.53;95977.72;4954064;29;20047;-83
2023/07/01 12:25:04;;;;;;;1.92;1.50;;;;;;;24.53;35.65;95973.97;4954115;29;20066;-83
2023/07/01 12:27:33;;;;;;;4.95;1.95;;;;;;;24.56;35.72;95978.72;4954122;29;20058;-83
2023/07/01 12:30:08;;;;;;;3.75;1.58;;;;;;;24.60;35.89;95970.97;4955081;29;20400;-84
2023/07/01 12:32:41;;;;;;;1.55;1.45;;;;;;;24.63;36.53;95976.50;4956437;29;20495;-86
2023/07/01 12:35:10;;;;;;;2.08;1.80;;;;;;;24.70;36.31;95980.69;4955483;29;20134;-82
2023/07/01 12:37:40;;;;;;;2.40;1.48;;;;;;;24.72;36.24;95975.88;4954276;29;20062;-83
2023/07/01 12:40:09;;;;;;;1.85;1.70;;;;;;;24.72;35.38;95967.88;4953896;29;20057;-83
2023/07/01 12:42:37;;;;;;;2.20;2.00;;;;;;;24.72;35.37;95959.88;4954277;29;20047;-85
2023/07/01 12:45:07;;;;;;;2.20;1.80;;;;;;;24.73;35.54;95974.78;4953937;28;20423;-81
2023/07/01 12:47:35;;;;;;;2.10;1.90;;;;;;;24.73;35.31;95967.59;4953935;29;20047;-82